sensor_id;sensor_type;location;lat;lon;timestamp;P1;durP1;ratioP1;P2;durP2;ratioP2
6840;SDS011;3458;53.678;14.080;2024-02-28T00:02:10;16.27;;;8.80;;
6840;SDS011;3458;53.678;14.080;2024-02-28T00:04:35;19.70;;;8.67;;
6840;SDS011;3458;53.678;14.080;2024-02-28T00:07:01;20.40;;;9.80;;
6840;SDS011;3458;53.678;14.080;2024-02-28T00:09:26;21.73;;;9.10;;
6840;SDS011;3458;53.678;14.080;2024-02-28T00:11:52;20.43;;;9.47;;
6840;SDS011;3458;53.678;14.080;2024-02-28T00:14:18;17.30;;;9.47;;
6840;SDS011;3458;53.678;14.080;2024-02-28T00:16:44;15.87;;;8.50;;
6840;SDS011;3458;53.678;14.080;2024-02-28T00:19:10;14.80;;;8.20;;
6840;SDS011;3458;53.678;14.080;2024-02-28T00:21:37;18.00;;;8.63;;
6840;SDS011;3458;53.678;14.080;2024-02-28T00:24:03;19.60;;;9.03;;
6840;SDS011;3458;53.678;14.080;2024-02-28T00:26:29;14.73;;;7.80;;
6840;SDS011;3458;53.678;14.080;2024-02-28T00:28:54;19.63;;;9.27;;
6840;SDS011;3458;53.678;14.080;2024-02-28T00:31:20;18.30;;;10.13;;
6840;SDS011;3458;53.678;14.080;2024-02-28T00:33:46;15.07;;;8.20;;
6840;SDS011;3458;53.678;14.080;2024-02-28T00:36:12;13.07;;;8.30;;
6840;SDS011;3458;53.678;14.080;2024-02-28T00:38:37;16.63;;;10.57;;
6840;SDS011;3458;53.678;14.080;2024-02-28T00:41:03;14.13;;;8.30;;
6840;SDS011;3458;53.678;14.080;2024-02-28T00:43:28;11.60;;;6.97;;
6840;SDS011;3458;53.678;14.080;2024-02-28T00:45:54;11.37;;;7.13;;
6840;SDS011;3458;53.678;14.080;2024-02-28T00:48:20;12.40;;;7.60;;
6840;SDS011;3458;53.678;14.080;2024-02-28T00:50:47;16.53;;;7.67;;
6840;SDS011;3458;53.678;14.080;2024-02-28T00:53:12;13.67;;;8.50;;
6840;SDS011;3458;53.678;14.080;2024-02-28T00:55:37;12.80;;;7.70;;
6840;SDS011;3458;53.678;14.080;2024-02-28T00:58:03;9.80;;;6.90;;
6840;SDS011;3458;53.678;14.080;2024-02-28T01:00:28;12.10;;;6.40;;
6840;SDS011;3458;53.678;14.080;2024-02-28T01:02:54;11.50;;;7.03;;
6840;SDS011;3458;53.678;14.080;2024-02-28T01:05:19;10.53;;;6.23;;
6840;SDS011;3458;53.678;14.080;2024-02-28T01:07:45;12.03;;;6.47;;
6840;SDS011;3458;53.678;14.080;2024-02-28T01:10:10;12.70;;;6.37;;
6840;SDS011;3458;53.678;14.080;2024-02-28T01:12:36;11.43;;;6.23;;
6840;SDS011;3458;53.678;14.080;2024-02-28T01:15:02;12.10;;;6.50;;
6840;SDS011;3458;53.678;14.080;2024-02-28T01:17:28;12.60;;;6.77;;
6840;SDS011;3458;53.678;14.080;2024-02-28T01:19:54;10.17;;;6.47;;
6840;SDS011;3458;53.678;14.080;2024-02-28T01:22:19;12.40;;;6.63;;
6840;SDS011;3458;53.678;14.080;2024-02-28T01:24:45;17.17;;;7.87;;
6840;SDS011;3458;53.678;14.080;2024-02-28T01:27:10;11.10;;;6.37;;
6840;SDS011;3458;53.678;14.080;2024-02-28T01:29:36;11.00;;;6.70;;
6840;SDS011;3458;53.678;14.080;2024-02-28T01:32:01;13.63;;;7.13;;
6840;SDS011;3458;53.678;14.080;2024-02-28T01:34:27;8.77;;;6.40;;
6840;SDS011;3458;53.678;14.080;2024-02-28T01:36:53;10.37;;;6.00;;
6840;SDS011;3458;53.678;14.080;2024-02-28T01:39:18;11.63;;;6.40;;
6840;SDS011;3458;53.678;14.080;2024-02-28T01:41:51;13.50;;;7.87;;
6840;SDS011;3458;53.678;14.080;2024-02-28T01:44:19;16.77;;;6.50;;
6840;SDS011;3458;53.678;14.080;2024-02-28T01:46:45;10.90;;;6.87;;
6840;SDS011;3458;53.678;14.080;2024-02-28T01:49:11;13.30;;;6.57;;
6840;SDS011;3458;53.678;14.080;2024-02-28T01:51:37;13.43;;;7.43;;
6840;SDS011;3458;53.678;14.080;2024-02-28T01:54:02;11.77;;;6.83;;
6840;SDS011;3458;53.678;14.080;2024-02-28T01:56:28;12.20;;;7.80;;
6840;SDS011;3458;53.678;14.080;2024-02-28T01:58:55;12.30;;;7.37;;
6840;SDS011;3458;53.678;14.080;2024-02-28T02:01:21;15.13;;;7.37;;
6840;SDS011;3458;53.678;14.080;2024-02-28T02:03:47;12.20;;;7.20;;
6840;SDS011;3458;53.678;14.080;2024-02-28T02:06:13;13.83;;;7.40;;
6840;SDS011;3458;53.678;14.080;2024-02-28T02:08:39;16.47;;;7.30;;
6840;SDS011;3458;53.678;14.080;2024-02-28T02:11:05;14.23;;;7.50;;
6840;SDS011;3458;53.678;14.080;2024-02-28T02:13:31;19.00;;;8.10;;
6840;SDS011;3458;53.678;14.080;2024-02-28T02:15:57;12.13;;;7.00;;
6840;SDS011;3458;53.678;14.080;2024-02-28T02:18:22;12.70;;;7.07;;
6840;SDS011;3458;53.678;14.080;2024-02-28T02:20:50;12.00;;;6.93;;
6840;SDS011;3458;53.678;14.080;2024-02-28T02:23:19;14.40;;;7.53;;
6840;SDS011;3458;53.678;14.080;2024-02-28T02:25:45;10.73;;;6.73;;
6840;SDS011;3458;53.678;14.080;2024-02-28T02:28:11;15.87;;;8.40;;
6840;SDS011;3458;53.678;14.080;2024-02-28T02:30:38;9.40;;;6.63;;
6840;SDS011;3458;53.678;14.080;2024-02-28T02:33:04;11.50;;;6.60;;
6840;SDS011;3458;53.678;14.080;2024-02-28T02:35:30;12.43;;;7.00;;
6840;SDS011;3458;53.678;14.080;2024-02-28T02:37:55;10.33;;;6.70;;
6840;SDS011;3458;53.678;14.080;2024-02-28T02:40:21;12.40;;;7.67;;
6840;SDS011;3458;53.678;14.080;2024-02-28T02:42:46;15.60;;;8.43;;
6840;SDS011;3458;53.678;14.080;2024-02-28T02:45:12;13.20;;;8.20;;
6840;SDS011;3458;53.678;14.080;2024-02-28T02:47:37;18.53;;;9.00;;
6840;SDS011;3458;53.678;14.080;2024-02-28T02:50:03;16.50;;;8.03;;
6840;SDS011;3458;53.678;14.080;2024-02-28T02:52:29;16.47;;;8.13;;
6840;SDS011;3458;53.678;14.080;2024-02-28T02:54:54;14.97;;;8.10;;
6840;SDS011;3458;53.678;14.080;2024-02-28T02:57:20;11.87;;;6.50;;
6840;SDS011;3458;53.678;14.080;2024-02-28T02:59:45;21.30;;;7.90;;
6840;SDS011;3458;53.678;14.080;2024-02-28T03:02:11;15.00;;;8.00;;
6840;SDS011;3458;53.678;14.080;2024-02-28T03:04:36;18.17;;;8.37;;
6840;SDS011;3458;53.678;14.080;2024-02-28T03:07:02;17.33;;;9.20;;
6840;SDS011;3458;53.678;14.080;2024-02-28T03:09:27;20.27;;;8.43;;
6840;SDS011;3458;53.678;14.080;2024-02-28T03:11:53;14.07;;;8.20;;
6840;SDS011;3458;53.678;14.080;2024-02-28T03:14:18;13.57;;;8.27;;
6840;SDS011;3458;53.678;14.080;2024-02-28T03:16:47;16.00;;;8.50;;
6840;SDS011;3458;53.678;14.080;2024-02-28T03:19:13;21.90;;;7.93;;
6840;SDS011;3458;53.678;14.080;2024-02-28T03:21:39;15.77;;;8.90;;
6840;SDS011;3458;53.678;14.080;2024-02-28T03:24:06;14.63;;;8.03;;
6840;SDS011;3458;53.678;14.080;2024-02-28T03:26:31;12.80;;;7.60;;
6840;SDS011;3458;53.678;14.080;2024-02-28T03:28:57;15.03;;;8.27;;
6840;SDS011;3458;53.678;14.080;2024-02-28T03:31:23;14.00;;;7.97;;
6840;SDS011;3458;53.678;14.080;2024-02-28T03:33:48;19.97;;;8.40;;
6840;SDS011;3458;53.678;14.080;2024-02-28T03:36:14;12.83;;;7.50;;
6840;SDS011;3458;53.678;14.080;2024-02-28T03:38:39;10.50;;;6.80;;
6840;SDS011;3458;53.678;14.080;2024-02-28T03:41:05;12.73;;;7.03;;
6840;SDS011;3458;53.678;14.080;2024-02-28T03:43:30;11.53;;;7.43;;
6840;SDS011;3458;53.678;14.080;2024-02-28T03:45:56;11.10;;;6.80;;
6840;SDS011;3458;53.678;14.080;2024-02-28T03:48:21;12.40;;;7.43;;
6840;SDS011;3458;53.678;14.080;2024-02-28T03:50:47;11.10;;;6.90;;
6840;SDS011;3458;53.678;14.080;2024-02-28T03:53:12;9.30;;;5.90;;
6840;SDS011;3458;53.678;14.080;2024-02-28T03:55:38;10.80;;;6.67;;
6840;SDS011;3458;53.678;14.080;2024-02-28T03:58:04;10.30;;;6.80;;
6840;SDS011;3458;53.678;14.080;2024-02-28T04:00:32;10.30;;;6.80;;
6840;SDS011;3458;53.678;14.080;2024-02-28T04:02:57;11.77;;;5.83;;
6840;SDS011;3458;53.678;14.080;2024-02-28T04:05:22;9.47;;;6.07;;
6840;SDS011;3458;53.678;14.080;2024-02-28T04:07:48;7.80;;;5.63;;
6840;SDS011;3458;53.678;14.080;2024-02-28T04:10:13;9.83;;;5.87;;
6840;SDS011;3458;53.678;14.080;2024-02-28T04:12:42;6.87;;;5.37;;
6840;SDS011;3458;53.678;14.080;2024-02-28T04:15:08;8.13;;;5.57;;
6840;SDS011;3458;53.678;14.080;2024-02-28T04:17:35;8.80;;;5.13;;
6840;SDS011;3458;53.678;14.080;2024-02-28T04:20:01;8.10;;;5.77;;
6840;SDS011;3458;53.678;14.080;2024-02-28T04:22:29;7.30;;;5.80;;
6840;SDS011;3458;53.678;14.080;2024-02-28T04:24:56;5.43;;;4.50;;
6840;SDS011;3458;53.678;14.080;2024-02-28T04:27:21;8.27;;;5.60;;
6840;SDS011;3458;53.678;14.080;2024-02-28T04:29:47;8.27;;;5.90;;
6840;SDS011;3458;53.678;14.080;2024-02-28T04:32:12;8.47;;;6.10;;
6840;SDS011;3458;53.678;14.080;2024-02-28T04:34:38;9.47;;;6.07;;
6840;SDS011;3458;53.678;14.080;2024-02-28T04:37:03;8.93;;;6.77;;
6840;SDS011;3458;53.678;14.080;2024-02-28T04:39:29;9.03;;;6.20;;
6840;SDS011;3458;53.678;14.080;2024-02-28T04:41:54;8.30;;;6.80;;
6840;SDS011;3458;53.678;14.080;2024-02-28T04:44:20;10.73;;;7.67;;
6840;SDS011;3458;53.678;14.080;2024-02-28T04:46:45;11.47;;;7.37;;
6840;SDS011;3458;53.678;14.080;2024-02-28T04:49:11;10.80;;;7.67;;
6840;SDS011;3458;53.678;14.080;2024-02-28T04:51:36;13.00;;;6.90;;
6840;SDS011;3458;53.678;14.080;2024-02-28T04:54:02;11.00;;;7.17;;
6840;SDS011;3458;53.678;14.080;2024-02-28T04:56:27;10.40;;;7.23;;
6840;SDS011;3458;53.678;14.080;2024-02-28T04:58:53;13.43;;;8.43;;
6840;SDS011;3458;53.678;14.080;2024-02-28T05:01:18;13.93;;;8.80;;
6840;SDS011;3458;53.678;14.080;2024-02-28T05:03:44;14.47;;;7.90;;
6840;SDS011;3458;53.678;14.080;2024-02-28T05:06:09;13.57;;;8.40;;
6840;SDS011;3458;53.678;14.080;2024-02-28T05:08:37;15.10;;;8.00;;
6840;SDS011;3458;53.678;14.080;2024-02-28T05:11:03;15.67;;;8.77;;
6840;SDS011;3458;53.678;14.080;2024-02-28T05:13:31;20.70;;;10.80;;
6840;SDS011;3458;53.678;14.080;2024-02-28T05:15:56;16.90;;;8.90;;
6840;SDS011;3458;53.678;14.080;2024-02-28T05:18:22;20.30;;;10.00;;
6840;SDS011;3458;53.678;14.080;2024-02-28T05:20:48;14.97;;;8.13;;
6840;SDS011;3458;53.678;14.080;2024-02-28T05:23:13;19.07;;;9.37;;
6840;SDS011;3458;53.678;14.080;2024-02-28T05:25:39;20.30;;;9.43;;
6840;SDS011;3458;53.678;14.080;2024-02-28T05:28:04;18.43;;;8.83;;
6840;SDS011;3458;53.678;14.080;2024-02-28T05:30:30;19.70;;;8.03;;
6840;SDS011;3458;53.678;14.080;2024-02-28T05:32:55;21.80;;;8.57;;
6840;SDS011;3458;53.678;14.080;2024-02-28T05:35:21;22.13;;;9.00;;
6840;SDS011;3458;53.678;14.080;2024-02-28T05:37:46;20.63;;;9.53;;
6840;SDS011;3458;53.678;14.080;2024-02-28T05:40:12;15.43;;;7.67;;
6840;SDS011;3458;53.678;14.080;2024-02-28T05:42:38;20.23;;;8.93;;
6840;SDS011;3458;53.678;14.080;2024-02-28T05:45:04;19.03;;;8.30;;
6840;SDS011;3458;53.678;14.080;2024-02-28T05:47:30;17.83;;;8.60;;
6840;SDS011;3458;53.678;14.080;2024-02-28T05:49:56;13.97;;;7.17;;
6840;SDS011;3458;53.678;14.080;2024-02-28T05:52:23;17.57;;;8.17;;
6840;SDS011;3458;53.678;14.080;2024-02-28T05:54:50;16.10;;;7.20;;
6840;SDS011;3458;53.678;14.080;2024-02-28T05:57:16;17.60;;;8.00;;
6840;SDS011;3458;53.678;14.080;2024-02-28T05:59:41;17.43;;;7.90;;
6840;SDS011;3458;53.678;14.080;2024-02-28T06:02:07;16.00;;;8.57;;
6840;SDS011;3458;53.678;14.080;2024-02-28T06:04:32;15.30;;;7.50;;
6840;SDS011;3458;53.678;14.080;2024-02-28T06:06:58;19.33;;;7.60;;
6840;SDS011;3458;53.678;14.080;2024-02-28T06:09:24;17.10;;;8.17;;
6840;SDS011;3458;53.678;14.080;2024-02-28T06:11:52;16.60;;;6.87;;
6840;SDS011;3458;53.678;14.080;2024-02-28T06:14:17;22.23;;;8.87;;
6840;SDS011;3458;53.678;14.080;2024-02-28T06:16:46;21.40;;;8.90;;
6840;SDS011;3458;53.678;14.080;2024-02-28T06:19:11;16.30;;;7.60;;
6840;SDS011;3458;53.678;14.080;2024-02-28T06:21:37;22.40;;;8.10;;
6840;SDS011;3458;53.678;14.080;2024-02-28T06:24:03;18.47;;;7.87;;
6840;SDS011;3458;53.678;14.080;2024-02-28T06:26:29;20.87;;;9.23;;
6840;SDS011;3458;53.678;14.080;2024-02-28T06:28:56;16.70;;;7.90;;
6840;SDS011;3458;53.678;14.080;2024-02-28T06:31:26;20.43;;;8.50;;
6840;SDS011;3458;53.678;14.080;2024-02-28T06:33:51;17.93;;;9.23;;
6840;SDS011;3458;53.678;14.080;2024-02-28T06:36:17;18.73;;;7.90;;
6840;SDS011;3458;53.678;14.080;2024-02-28T06:38:42;17.93;;;8.57;;
6840;SDS011;3458;53.678;14.080;2024-02-28T06:41:08;20.00;;;9.10;;
6840;SDS011;3458;53.678;14.080;2024-02-28T06:43:33;15.23;;;8.83;;
6840;SDS011;3458;53.678;14.080;2024-02-28T06:46:00;16.60;;;8.17;;
6840;SDS011;3458;53.678;14.080;2024-02-28T06:48:26;18.83;;;8.90;;
6840;SDS011;3458;53.678;14.080;2024-02-28T06:50:52;15.50;;;8.00;;
6840;SDS011;3458;53.678;14.080;2024-02-28T06:53:18;19.23;;;9.00;;
6840;SDS011;3458;53.678;14.080;2024-02-28T06:55:43;17.40;;;8.23;;
6840;SDS011;3458;53.678;14.080;2024-02-28T06:58:10;24.57;;;9.40;;
6840;SDS011;3458;53.678;14.080;2024-02-28T07:00:36;16.70;;;8.60;;
6840;SDS011;3458;53.678;14.080;2024-02-28T07:03:01;20.07;;;9.90;;
6840;SDS011;3458;53.678;14.080;2024-02-28T07:05:27;24.37;;;10.10;;
6840;SDS011;3458;53.678;14.080;2024-02-28T07:07:52;19.83;;;9.33;;
6840;SDS011;3458;53.678;14.080;2024-02-28T07:10:18;19.57;;;8.40;;
6840;SDS011;3458;53.678;14.080;2024-02-28T07:12:44;19.67;;;8.70;;
6840;SDS011;3458;53.678;14.080;2024-02-28T07:15:09;17.57;;;9.57;;
6840;SDS011;3458;53.678;14.080;2024-02-28T07:17:35;18.10;;;8.57;;
6840;SDS011;3458;53.678;14.080;2024-02-28T07:20:00;21.63;;;10.67;;
6840;SDS011;3458;53.678;14.080;2024-02-28T07:22:26;20.67;;;8.93;;
6840;SDS011;3458;53.678;14.080;2024-02-28T07:24:51;17.60;;;9.03;;
6840;SDS011;3458;53.678;14.080;2024-02-28T07:27:17;20.70;;;9.70;;
6840;SDS011;3458;53.678;14.080;2024-02-28T07:29:42;21.27;;;9.40;;
6840;SDS011;3458;53.678;14.080;2024-02-28T07:32:09;21.97;;;9.33;;
6840;SDS011;3458;53.678;14.080;2024-02-28T07:34:34;21.30;;;8.70;;
6840;SDS011;3458;53.678;14.080;2024-02-28T07:37:00;20.23;;;9.87;;
6840;SDS011;3458;53.678;14.080;2024-02-28T07:39:25;16.10;;;9.50;;
6840;SDS011;3458;53.678;14.080;2024-02-28T07:41:52;14.77;;;7.80;;
6840;SDS011;3458;53.678;14.080;2024-02-28T07:44:17;15.93;;;8.30;;
6840;SDS011;3458;53.678;14.080;2024-02-28T07:46:43;24.60;;;10.30;;
6840;SDS011;3458;53.678;14.080;2024-02-28T07:49:09;16.27;;;8.00;;
6840;SDS011;3458;53.678;14.080;2024-02-28T07:51:35;17.20;;;7.93;;
6840;SDS011;3458;53.678;14.080;2024-02-28T07:54:01;16.13;;;8.27;;
6840;SDS011;3458;53.678;14.080;2024-02-28T07:56:28;20.00;;;9.20;;
6840;SDS011;3458;53.678;14.080;2024-02-28T07:58:54;19.53;;;9.50;;
6840;SDS011;3458;53.678;14.080;2024-02-28T08:01:19;19.00;;;8.83;;
6840;SDS011;3458;53.678;14.080;2024-02-28T08:03:47;20.67;;;9.20;;
6840;SDS011;3458;53.678;14.080;2024-02-28T08:06:12;16.90;;;9.60;;
6840;SDS011;3458;53.678;14.080;2024-02-28T08:08:38;16.97;;;8.93;;
6840;SDS011;3458;53.678;14.080;2024-02-28T08:11:03;17.43;;;8.80;;
6840;SDS011;3458;53.678;14.080;2024-02-28T08:13:29;15.10;;;8.33;;
6840;SDS011;3458;53.678;14.080;2024-02-28T08:15:55;15.93;;;9.00;;
6840;SDS011;3458;53.678;14.080;2024-02-28T08:18:20;15.40;;;8.73;;
6840;SDS011;3458;53.678;14.080;2024-02-28T08:20:46;19.70;;;8.80;;
6840;SDS011;3458;53.678;14.080;2024-02-28T08:23:12;15.77;;;7.93;;
6840;SDS011;3458;53.678;14.080;2024-02-28T08:25:37;17.00;;;8.30;;
6840;SDS011;3458;53.678;14.080;2024-02-28T08:28:03;13.00;;;7.63;;
6840;SDS011;3458;53.678;14.080;2024-02-28T08:30:29;14.90;;;8.60;;
6840;SDS011;3458;53.678;14.080;2024-02-28T08:32:54;14.03;;;7.73;;
6840;SDS011;3458;53.678;14.080;2024-02-28T08:35:19;18.90;;;7.63;;
6840;SDS011;3458;53.678;14.080;2024-02-28T08:37:45;20.77;;;7.80;;
6840;SDS011;3458;53.678;14.080;2024-02-28T08:40:11;17.20;;;8.67;;
6840;SDS011;3458;53.678;14.080;2024-02-28T08:42:37;20.80;;;10.40;;
6840;SDS011;3458;53.678;14.080;2024-02-28T08:45:03;22.33;;;8.70;;
6840;SDS011;3458;53.678;14.080;2024-02-28T08:47:30;13.63;;;7.60;;
6840;SDS011;3458;53.678;14.080;2024-02-28T08:49:56;14.67;;;7.00;;
6840;SDS011;3458;53.678;14.080;2024-02-28T08:52:22;15.30;;;7.70;;
6840;SDS011;3458;53.678;14.080;2024-02-28T08:54:48;13.33;;;7.20;;
6840;SDS011;3458;53.678;14.080;2024-02-28T08:57:14;10.90;;;6.57;;
6840;SDS011;3458;53.678;14.080;2024-02-28T08:59:39;15.83;;;7.50;;
6840;SDS011;3458;53.678;14.080;2024-02-28T09:02:05;15.20;;;6.40;;
6840;SDS011;3458;53.678;14.080;2024-02-28T09:04:31;12.47;;;5.70;;
6840;SDS011;3458;53.678;14.080;2024-02-28T09:06:57;13.77;;;6.37;;
6840;SDS011;3458;53.678;14.080;2024-02-28T09:09:22;15.60;;;6.33;;
6840;SDS011;3458;53.678;14.080;2024-02-28T09:11:48;12.77;;;5.67;;
6840;SDS011;3458;53.678;14.080;2024-02-28T09:14:13;8.37;;;4.90;;
6840;SDS011;3458;53.678;14.080;2024-02-28T09:16:39;16.70;;;7.37;;
6840;SDS011;3458;53.678;14.080;2024-02-28T09:19:04;10.97;;;5.90;;
6840;SDS011;3458;53.678;14.080;2024-02-28T09:21:30;13.70;;;7.13;;
6840;SDS011;3458;53.678;14.080;2024-02-28T09:23:56;10.50;;;6.30;;
6840;SDS011;3458;53.678;14.080;2024-02-28T09:26:21;13.20;;;5.20;;
6840;SDS011;3458;53.678;14.080;2024-02-28T09:28:47;9.97;;;5.20;;
6840;SDS011;3458;53.678;14.080;2024-02-28T09:31:12;10.60;;;5.30;;
6840;SDS011;3458;53.678;14.080;2024-02-28T09:33:40;11.73;;;5.40;;
6840;SDS011;3458;53.678;14.080;2024-02-28T09:36:06;10.17;;;5.20;;
6840;SDS011;3458;53.678;14.080;2024-02-28T09:38:31;11.00;;;4.40;;
6840;SDS011;3458;53.678;14.080;2024-02-28T09:40:59;8.33;;;4.50;;
6840;SDS011;3458;53.678;14.080;2024-02-28T09:43:28;10.30;;;5.20;;
6840;SDS011;3458;53.678;14.080;2024-02-28T09:45:59;8.97;;;5.30;;
6840;SDS011;3458;53.678;14.080;2024-02-28T09:48:28;6.10;;;3.73;;
6840;SDS011;3458;53.678;14.080;2024-02-28T09:50:55;7.87;;;4.90;;
6840;SDS011;3458;53.678;14.080;2024-02-28T09:53:21;13.63;;;6.23;;
6840;SDS011;3458;53.678;14.080;2024-02-28T09:55:48;16.60;;;6.37;;
6840;SDS011;3458;53.678;14.080;2024-02-28T09:58:14;17.73;;;7.23;;
6840;SDS011;3458;53.678;14.080;2024-02-28T10:00:40;14.60;;;7.30;;
6840;SDS011;3458;53.678;14.080;2024-02-28T10:03:08;11.20;;;5.73;;
6840;SDS011;3458;53.678;14.080;2024-02-28T10:05:36;12.23;;;5.07;;
6840;SDS011;3458;53.678;14.080;2024-02-28T10:08:04;10.33;;;5.73;;
6840;SDS011;3458;53.678;14.080;2024-02-28T10:10:30;13.00;;;5.97;;
6840;SDS011;3458;53.678;14.080;2024-02-28T10:12:56;13.53;;;5.93;;
6840;SDS011;3458;53.678;14.080;2024-02-28T10:15:21;10.17;;;5.03;;
6840;SDS011;3458;53.678;14.080;2024-02-28T10:17:47;9.70;;;5.37;;
6840;SDS011;3458;53.678;14.080;2024-02-28T10:20:13;8.83;;;5.00;;
6840;SDS011;3458;53.678;14.080;2024-02-28T10:22:39;12.77;;;5.10;;
6840;SDS011;3458;53.678;14.080;2024-02-28T10:25:05;7.90;;;4.73;;
6840;SDS011;3458;53.678;14.080;2024-02-28T10:27:34;9.50;;;4.90;;
6840;SDS011;3458;53.678;14.080;2024-02-28T10:30:00;11.20;;;5.77;;
6840;SDS011;3458;53.678;14.080;2024-02-28T10:32:29;12.90;;;6.37;;
6840;SDS011;3458;53.678;14.080;2024-02-28T10:35:00;14.77;;;7.00;;
6840;SDS011;3458;53.678;14.080;2024-02-28T10:37:26;12.47;;;6.63;;
6840;SDS011;3458;53.678;14.080;2024-02-28T10:39:56;14.33;;;7.13;;
6840;SDS011;3458;53.678;14.080;2024-02-28T10:42:22;13.27;;;6.50;;
6840;SDS011;3458;53.678;14.080;2024-02-28T10:44:51;10.50;;;6.00;;
6840;SDS011;3458;53.678;14.080;2024-02-28T10:47:25;10.27;;;5.27;;
6840;SDS011;3458;53.678;14.080;2024-02-28T10:49:55;15.30;;;7.30;;
6840;SDS011;3458;53.678;14.080;2024-02-28T10:52:21;11.60;;;6.30;;
6840;SDS011;3458;53.678;14.080;2024-02-28T10:54:48;16.37;;;7.50;;
6840;SDS011;3458;53.678;14.080;2024-02-28T10:57:19;15.73;;;6.67;;
6840;SDS011;3458;53.678;14.080;2024-02-28T10:59:46;12.57;;;7.50;;
6840;SDS011;3458;53.678;14.080;2024-02-28T11:02:12;10.17;;;6.20;;
6840;SDS011;3458;53.678;14.080;2024-02-28T11:04:38;13.70;;;7.10;;
6840;SDS011;3458;53.678;14.080;2024-02-28T11:07:05;13.73;;;6.93;;
6840;SDS011;3458;53.678;14.080;2024-02-28T11:09:31;11.60;;;5.70;;
6840;SDS011;3458;53.678;14.080;2024-02-28T11:11:57;10.93;;;6.77;;
6840;SDS011;3458;53.678;14.080;2024-02-28T11:14:22;13.20;;;6.67;;
6840;SDS011;3458;53.678;14.080;2024-02-28T11:17:03;9.70;;;6.13;;
6840;SDS011;3458;53.678;14.080;2024-02-28T11:19:30;8.60;;;5.50;;
6840;SDS011;3458;53.678;14.080;2024-02-28T11:21:57;11.37;;;6.07;;
6840;SDS011;3458;53.678;14.080;2024-02-28T11:24:24;8.40;;;5.57;;
6840;SDS011;3458;53.678;14.080;2024-02-28T11:26:54;10.53;;;5.80;;
6840;SDS011;3458;53.678;14.080;2024-02-28T11:29:24;11.20;;;6.13;;
6840;SDS011;3458;53.678;14.080;2024-02-28T11:31:50;10.70;;;6.33;;
6840;SDS011;3458;53.678;14.080;2024-02-28T11:34:16;6.87;;;4.70;;
6840;SDS011;3458;53.678;14.080;2024-02-28T11:36:41;7.23;;;4.53;;
6840;SDS011;3458;53.678;14.080;2024-02-28T11:39:07;10.27;;;4.83;;
6840;SDS011;3458;53.678;14.080;2024-02-28T11:41:32;10.43;;;4.80;;
6840;SDS011;3458;53.678;14.080;2024-02-28T11:43:58;9.40;;;5.20;;
6840;SDS011;3458;53.678;14.080;2024-02-28T11:46:23;8.03;;;4.93;;
6840;SDS011;3458;53.678;14.080;2024-02-28T11:48:49;8.00;;;4.90;;
6840;SDS011;3458;53.678;14.080;2024-02-28T11:51:15;8.03;;;4.63;;
6840;SDS011;3458;53.678;14.080;2024-02-28T11:53:40;10.00;;;4.87;;
6840;SDS011;3458;53.678;14.080;2024-02-28T11:56:06;6.97;;;4.10;;
6840;SDS011;3458;53.678;14.080;2024-02-28T11:58:33;6.57;;;4.40;;
6840;SDS011;3458;53.678;14.080;2024-02-28T12:00:58;5.77;;;4.33;;
6840;SDS011;3458;53.678;14.080;2024-02-28T12:03:24;9.17;;;4.30;;
6840;SDS011;3458;53.678;14.080;2024-02-28T12:05:54;9.40;;;4.53;;
6840;SDS011;3458;53.678;14.080;2024-02-28T12:08:20;10.03;;;5.83;;
6840;SDS011;3458;53.678;14.080;2024-02-28T12:10:46;11.20;;;6.40;;
6840;SDS011;3458;53.678;14.080;2024-02-28T12:13:15;7.23;;;5.40;;
6840;SDS011;3458;53.678;14.080;2024-02-28T12:15:44;6.70;;;4.43;;
6840;SDS011;3458;53.678;14.080;2024-02-28T12:18:11;5.90;;;4.40;;
6840;SDS011;3458;53.678;14.080;2024-02-28T12:20:36;6.77;;;5.10;;
6840;SDS011;3458;53.678;14.080;2024-02-28T12:23:02;8.43;;;5.83;;
6840;SDS011;3458;53.678;14.080;2024-02-28T12:25:29;9.00;;;5.30;;
6840;SDS011;3458;53.678;14.080;2024-02-28T12:27:55;9.40;;;5.60;;
6840;SDS011;3458;53.678;14.080;2024-02-28T12:30:20;8.03;;;5.00;;
6840;SDS011;3458;53.678;14.080;2024-02-28T12:32:46;8.10;;;4.50;;
6840;SDS011;3458;53.678;14.080;2024-02-28T12:35:11;9.20;;;5.20;;
6840;SDS011;3458;53.678;14.080;2024-02-28T12:37:37;11.97;;;4.77;;
6840;SDS011;3458;53.678;14.080;2024-02-28T12:40:04;8.53;;;5.07;;
6840;SDS011;3458;53.678;14.080;2024-02-28T12:42:30;6.90;;;4.40;;
6840;SDS011;3458;53.678;14.080;2024-02-28T12:44:56;8.00;;;4.93;;
6840;SDS011;3458;53.678;14.080;2024-02-28T12:47:22;9.67;;;5.47;;
6840;SDS011;3458;53.678;14.080;2024-02-28T12:49:47;8.23;;;4.80;;
6840;SDS011;3458;53.678;14.080;2024-02-28T12:52:13;8.07;;;4.77;;
6840;SDS011;3458;53.678;14.080;2024-02-28T12:54:38;6.40;;;4.30;;
6840;SDS011;3458;53.678;14.080;2024-02-28T12:57:04;6.70;;;4.37;;
6840;SDS011;3458;53.678;14.080;2024-02-28T12:59:31;7.10;;;4.47;;
6840;SDS011;3458;53.678;14.080;2024-02-28T13:01:57;7.03;;;4.57;;
6840;SDS011;3458;53.678;14.080;2024-02-28T13:04:23;9.33;;;4.73;;
6840;SDS011;3458;53.678;14.080;2024-02-28T13:06:50;11.80;;;5.73;;
6840;SDS011;3458;53.678;14.080;2024-02-28T13:09:18;7.60;;;5.00;;
6840;SDS011;3458;53.678;14.080;2024-02-28T13:11:43;7.90;;;4.50;;
6840;SDS011;3458;53.678;14.080;2024-02-28T13:14:09;8.40;;;4.37;;
6840;SDS011;3458;53.678;14.080;2024-02-28T13:16:35;8.53;;;4.53;;
6840;SDS011;3458;53.678;14.080;2024-02-28T13:19:01;5.93;;;3.80;;
6840;SDS011;3458;53.678;14.080;2024-02-28T13:21:27;8.43;;;5.00;;
6840;SDS011;3458;53.678;14.080;2024-02-28T13:23:53;6.23;;;3.97;;
6840;SDS011;3458;53.678;14.080;2024-02-28T13:26:18;7.77;;;4.70;;
6840;SDS011;3458;53.678;14.080;2024-02-28T13:28:44;8.50;;;4.60;;
6840;SDS011;3458;53.678;14.080;2024-02-28T13:31:10;8.10;;;4.73;;
6840;SDS011;3458;53.678;14.080;2024-02-28T13:33:35;7.70;;;4.47;;
6840;SDS011;3458;53.678;14.080;2024-02-28T13:36:02;9.73;;;4.50;;
6840;SDS011;3458;53.678;14.080;2024-02-28T13:38:28;6.33;;;3.77;;
6840;SDS011;3458;53.678;14.080;2024-02-28T13:40:54;6.60;;;3.80;;
6840;SDS011;3458;53.678;14.080;2024-02-28T13:43:19;10.13;;;4.77;;
6840;SDS011;3458;53.678;14.080;2024-02-28T13:45:48;8.17;;;4.83;;
6840;SDS011;3458;53.678;14.080;2024-02-28T13:48:19;10.23;;;4.50;;
6840;SDS011;3458;53.678;14.080;2024-02-28T13:50:47;7.07;;;4.40;;
6840;SDS011;3458;53.678;14.080;2024-02-28T13:53:13;8.33;;;4.70;;
6840;SDS011;3458;53.678;14.080;2024-02-28T13:55:40;6.83;;;4.67;;
6840;SDS011;3458;53.678;14.080;2024-02-28T13:58:10;6.03;;;4.20;;
6840;SDS011;3458;53.678;14.080;2024-02-28T14:00:36;7.27;;;4.50;;
6840;SDS011;3458;53.678;14.080;2024-02-28T14:03:03;4.83;;;4.30;;
6840;SDS011;3458;53.678;14.080;2024-02-28T14:05:29;5.00;;;3.60;;
6840;SDS011;3458;53.678;14.080;2024-02-28T14:07:55;6.70;;;4.47;;
6840;SDS011;3458;53.678;14.080;2024-02-28T14:10:22;10.23;;;4.40;;
6840;SDS011;3458;53.678;14.080;2024-02-28T14:12:48;7.23;;;4.77;;
6840;SDS011;3458;53.678;14.080;2024-02-28T14:15:14;7.40;;;4.80;;
6840;SDS011;3458;53.678;14.080;2024-02-28T14:17:40;6.93;;;4.50;;
6840;SDS011;3458;53.678;14.080;2024-02-28T14:20:08;9.73;;;5.50;;
6840;SDS011;3458;53.678;14.080;2024-02-28T14:22:34;5.37;;;4.10;;
6840;SDS011;3458;53.678;14.080;2024-02-28T14:25:00;7.43;;;3.90;;
6840;SDS011;3458;53.678;14.080;2024-02-28T14:27:26;7.93;;;4.87;;
6840;SDS011;3458;53.678;14.080;2024-02-28T14:29:55;10.83;;;4.67;;
6840;SDS011;3458;53.678;14.080;2024-02-28T14:32:21;8.53;;;4.70;;
6840;SDS011;3458;53.678;14.080;2024-02-28T14:34:47;8.80;;;4.67;;
6840;SDS011;3458;53.678;14.080;2024-02-28T14:37:14;8.00;;;4.47;;
6840;SDS011;3458;53.678;14.080;2024-02-28T14:39:39;10.90;;;5.13;;
6840;SDS011;3458;53.678;14.080;2024-02-28T14:42:06;9.57;;;5.50;;
6840;SDS011;3458;53.678;14.080;2024-02-28T14:44:36;14.23;;;5.00;;